Time;durP1;ratioP1;P1;durP2;ratioP2;P2;SDS_P1;SDS_P2;PMS_P1;PMS_P2;Temp;Humidity;BMP_temperature;BMP_pressure;BME280_temperature;BME280_humidity;BME280_pressure;Samples;Min_cycle;Max_cycle;Signal;HPM_P1;HPM_P2
2024/01/03 00:00:31;;;;;;;;;;;;;;;;;;5101563;28;19967;-67
2024/01/03 00:02:57;;;;;;;;;;;;;;;;;;5104458;28;20388;-68
2024/01/03 00:05:23;;;;;;;;;;;;;;;;;;5099886;28;20026;-67
2024/01/03 00:07:49;;;;;;;;;;;;;;;;;;5097583;28;20011;-67
2024/01/03 00:10:15;;;;;;;;;;;;;;;;;;5105238;28;19963;-68
2024/01/03 00:12:41;;;;;;;;;;;;;;;;;;5098396;28;19955;-67
2024/01/03 00:15:07;;;;;;;;;;;;;;;;;;5113641;28;19924;-67
2024/01/03 00:17:33;;;;;;;;;;;;;;;;;;5099207;28;19921;-68
2024/01/03 00:19:58;;;;;;;;;;;;;;;;;;5098493;28;19959;-67
2024/01/03 00:22:24;;;;;;;;;;;;;;;;;;5105930;28;19927;-68
2024/01/03 00:24:50;;;;;;;;;;;;;;;;;;5101545;28;20365;-68
2024/01/03 00:27:16;;;;;;;;;;;;;;;;;;5100497;28;20523;-68
2024/01/03 00:29:42;;;;;;;;;;;;;;;;;;5108391;28;19931;-69
2024/01/03 00:32:08;;;;;;;;;;;;;;;;;;5111301;28;20413;-68
2024/01/03 00:34:34;;;;;;;;;;;;;;;;;;5112603;28;19928;-68
2024/01/03 00:37:00;;;;;;;;;;;;;;;;;;5110820;28;20064;-68
2024/01/03 00:39:26;;;;;;;;;;;;;;;;;;5111771;28;19924;-68
2024/01/03 00:41:52;;;;;;;;;;;;;;;;;;5109395;28;20486;-68
2024/01/03 00:44:18;;;;;;;;;;;;;;;;;;5109918;28;20014;-68
2024/01/03 00:46:44;;;;;;;;;;;;;;;;;;5110280;28;20035;-68
2024/01/03 00:49:09;;;;;;;;;;;;;;;;;;5111425;28;19967;-68
2024/01/03 00:51:35;;;;;;;;;;;;;;;;;;5113069;28;20349;-68
2024/01/03 00:54:01;;;;;;;;;;;;;;;;;;5114415;28;20023;-67
2024/01/03 00:56:27;;;;;;;;;;;;;;;;;;5113659;28;19966;-67
2024/01/03 00:58:53;;;;;;;;;;;;;;;;;;5114893;28;19924;-68
2024/01/03 01:01:19;;;;;;;;;;;;;;;;;;5115447;28;20432;-67
2024/01/03 01:03:45;;;;;;;;;;;;;;;;;;5115299;28;19926;-67
2024/01/03 01:06:11;;;;;;;;;;;;;;;;;;5115246;28;19928;-68
2024/01/03 01:08:37;;;;;;;;;;;;;;;;;;5113693;28;20289;-69
2024/01/03 01:11:03;;;;;;;;;;;;;;;;;;5114780;28;19919;-68
2024/01/03 01:13:29;;;;;;;;;;;;;;;;;;5113154;28;20011;-69
2024/01/03 01:15:54;;;;;;;;;;;;;;;;;;5115202;28;20018;-68
2024/01/03 01:18:20;;;;;;;;;;;;;;;;;;5132324;27;19923;-68
2024/01/03 01:20:46;;;;;;;;;;;;;;;;;;5114759;27;20289;-68
2024/01/03 01:23:12;;;;;;;;;;;;;;;;;;5113893;28;19920;-67
2024/01/03 01:25:38;;;;;;;;;;;;;;;;;;5113681;28;19931;-67
2024/01/03 01:28:04;;;;;;;;;;;;;;;;;;5105042;28;19955;-68
2024/01/03 01:30:30;;;;;;;;;;;;;;;;;;5110085;28;20265;-68
2024/01/03 01:32:56;;;;;;;;;;;;;;;;;;5108820;28;19919;-67
2024/01/03 01:35:22;;;;;;;;;;;;;;;;;;5111758;28;19924;-68
2024/01/03 01:37:48;;;;;;;;;;;;;;;;;;5113085;28;20475;-67
2024/01/03 01:40:14;;;;;;;;;;;;;;;;;;5106134;28;19943;-69
2024/01/03 01:42:40;;;;;;;;;;;;;;;;;;5111788;28;20285;-68
2024/01/03 01:45:06;;;;;;;;;;;;;;;;;;5113300;28;19927;-68
2024/01/03 01:47:32;;;;;;;;;;;;;;;;;;5114819;28;19926;-67
2024/01/03 01:49:58;;;;;;;;;;;;;;;;;;5114345;28;19919;-67
2024/01/03 01:52:24;;;;;;;;;;;;;;;;;;5114522;27;20577;-68
2024/01/03 01:54:49;;;;;;;;;;;;;;;;;;5114299;28;19928;-68
2024/01/03 01:57:15;;;;;;;;;;;;;;;;;;5110489;28;19924;-68
2024/01/03 01:59:42;;;;;;;;;;;;;;;;;;5110825;28;19974;-68
2024/01/03 02:02:08;;;;;;;;;;;;;;;;;;5112287;28;20606;-68
2024/01/03 02:04:34;;;;;;;;;;;;;;;;;;5107391;28;19923;-66
2024/01/03 02:07:00;;;;;;;;;;;;;;;;;;5113873;28;19919;-68
2024/01/03 02:09:25;;;;;;;;;;;;;;;;;;5114353;28;19926;-68
2024/01/03 02:11:51;;;;;;;;;;;;;;;;;;5109462;28;20358;-68
2024/01/03 02:14:17;;;;;;;;;;;;;;;;;;5106525;28;20006;-68
2024/01/03 02:16:43;;;;;;;;;;;;;;;;;;5094945;28;20348;-68
2024/01/03 02:19:09;;;;;;;;;;;;;;;;;;5113735;28;19927;-68
2024/01/03 02:21:35;;;;;;;;;;;;;;;;;;5112398;28;19935;-68
2024/01/03 02:24:01;;;;;;;;;;;;;;;;;;5106622;28;19936;-68
2024/01/03 02:26:27;;;;;;;;;;;;;;;;;;5108932;28;19920;-67
2024/01/03 02:28:53;;;;;;;;;;;;;;;;;;5105563;28;20474;-68
2024/01/03 02:31:19;;;;;;;;;;;;;;;;;;5113830;28;19923;-67
2024/01/03 02:33:45;;;;;;;;;;;;;;;;;;5109688;28;19930;-67
2024/01/03 02:36:11;;;;;;;;;;;;;;;;;;5114984;27;20144;-66
2024/01/03 02:38:37;;;;;;;;;;;;;;;;;;5109834;27;20360;-66
2024/01/03 02:41:02;;;;;;;;;;;;;;;;;;5109676;28;19924;-66
2024/01/03 02:43:28;;;;;;;;;;;;;;;;;;5097958;28;19976;-66
2024/01/03 02:45:54;;;;;;;;;;;;;;;;;;5113740;27;19920;-66
2024/01/03 02:48:20;;;;;;;;;;;;;;;;;;5108911;27;19919;-67
2024/01/03 02:50:48;;;;;;;;;;;;;;;;;;5105456;28;19927;-67
2024/01/03 02:53:14;;;;;;;;;;;;;;;;;;5102968;28;19928;-67
2024/01/03 02:55:39;;;;;;;;;;;;;;;;;;5108875;28;20284;-67
2024/01/03 02:58:05;;;;;;;;;;;;;;;;;;5099795;28;20350;-67
2024/01/03 03:00:31;;;;;;;;;;;;;;;;;;5106327;28;19935;-67
2024/01/03 03:02:57;;;;;;;;;;;;;;;;;;5105262;27;19920;-66
2024/01/03 03:05:23;;;;;;;;;;;;;;;;;;5109146;28;19923;-66
2024/01/03 03:07:49;;;;;;;;;;;;;;;;;;5110411;28;20365;-66
2024/01/03 03:10:15;;;;;;;;;;;;;;;;;;5111642;28;19927;-67
2024/01/03 03:12:41;;;;;;;;;;;;;;;;;;5110734;28;19923;-67
2024/01/03 03:15:07;;;;;;;;;;;;;;;;;;5112049;28;19927;-67
2024/01/03 03:17:33;;;;;;;;;;;;;;;;;;5109083;28;20401;-66
2024/01/03 03:19:59;;;;;;;;;;;;;;;;;;5112376;28;19972;-67
2024/01/03 03:22:24;;;;;;;;;;;;;;;;;;5111423;28;20589;-68
2024/01/03 03:24:50;;;;;;;;;;;;;;;;;;5108415;28;19966;-65
2024/01/03 03:27:16;;;;;;;;;;;;;;;;;;5112132;28;20008;-65
2024/01/03 03:29:42;;;;;;;;;;;;;;;;;;5112558;28;19920;-67
2024/01/03 03:32:10;;;;;;;;;;;;;;;;;;5109581;28;19924;-67
2024/01/03 03:34:36;;;;;;;;;;;;;;;;;;5110942;28;19935;-67
2024/01/03 03:37:02;;;;;;;;;;;;;;;;;;5112504;28;19932;-68
2024/01/03 03:39:28;;;;;;;;;;;;;;;;;;5112593;28;19923;-67
2024/01/03 03:41:53;;;;;;;;;;;;;;;;;;5110523;28;19966;-67
2024/01/03 03:44:19;;;;;;;;;;;;;;;;;;5108419;28;20015;-66
2024/01/03 03:46:45;;;;;;;;;;;;;;;;;;5112255;28;20302;-66
2024/01/03 03:49:11;;;;;;;;;;;;;;;;;;5110282;28;20027;-67
2024/01/03 03:51:37;;;;;;;;;;;;;;;;;;5112094;28;19926;-65
2024/01/03 03:54:03;;;;;;;;;;;;;;;;;;5109650;28;19938;-66
2024/01/03 03:56:29;;;;;;;;;;;;;;;;;;5112021;28;20252;-67
2024/01/03 03:58:55;;;;;;;;;;;;;;;;;;5107623;28;20280;-67
2024/01/03 04:01:21;;;;;;;;;;;;;;;;;;5108176;28;19926;-68
2024/01/03 04:03:46;;;;;;;;;;;;;;;;;;5100906;28;19927;-68
2024/01/03 04:06:14;;;;;;;;;;;;;;;;;;5109819;28;19927;-68
2024/01/03 04:08:40;;;;;;;;;;;;;;;;;;5111970;28;19920;-67
2024/01/03 04:11:06;;;;;;;;;;;;;;;;;;5111720;28;20726;-67
2024/01/03 04:13:32;;;;;;;;;;;;;;;;;;5110566;28;19928;-67
2024/01/03 04:16:02;;;;;;;;;;;;;;;;;;5104060;28;20361;-67
2024/01/03 04:18:28;;;;;;;;;;;;;;;;;;5109338;28;19935;-68
2024/01/03 04:20:54;;;;;;;;;;;;;;;;;;5107895;28;19920;-68
2024/01/03 04:23:20;;;;;;;;;;;;;;;;;;5110812;28;20277;-66
2024/01/03 04:25:46;;;;;;;;;;;;;;;;;;5110776;28;20396;-66
2024/01/03 04:28:12;;;;;;;;;;;;;;;;;;5116081;28;19924;-66
2024/01/03 04:30:38;;;;;;;;;;;;;;;;;;5115030;28;19919;-67
2024/01/03 04:33:04;;;;;;;;;;;;;;;;;;5106000;28;19927;-67
2024/01/03 04:35:30;;;;;;;;;;;;;;;;;;5111115;28;20770;-68
2024/01/03 04:38:01;;;;;;;;;;;;;;;;;;5106487;28;19946;-68
2024/01/03 04:40:27;;;;;;;;;;;;;;;;;;5114632;28;19989;-69
2024/01/03 04:42:53;;;;;;;;;;;;;;;;;;5109989;28;19955;-67
2024/01/03 04:45:19;;;;;;;;;;;;;;;;;;5113267;28;20006;-67
2024/01/03 04:47:45;;;;;;;;;;;;;;;;;;5115093;28;20379;-67
2024/01/03 04:50:11;;;;;;;;;;;;;;;;;;5112884;28;20533;-68
2024/01/03 04:52:37;;;;;;;;;;;;;;;;;;5110951;28;19962;-67
2024/01/03 04:55:03;;;;;;;;;;;;;;;;;;5114214;28;20023;-67
2024/01/03 04:57:29;;;;;;;;;;;;;;;;;;5111460;28;20065;-67
2024/01/03 04:59:54;;;;;;;;;;;;;;;;;;5108254;28;19935;-67
2024/01/03 05:02:20;;;;;;;;;;;;;;;;;;5109933;28;19927;-67
2024/01/03 05:04:48;;;;;;;;;;;;;;;;;;5106191;28;19927;-68
2024/01/03 05:07:14;;;;;;;;;;;;;;;;;;5103630;28;19920;-68
2024/01/03 05:09:40;;;;;;;;;;;;;;;;;;5113693;28;20369;-67
2024/01/03 05:12:06;;;;;;;;;;;;;;;;;;5113544;28;19919;-68
2024/01/03 05:14:32;;;;;;;;;;;;;;;;;;5109251;28;19968;-68
2024/01/03 05:16:58;;;;;;;;;;;;;;;;;;5104255;28;20370;-68
2024/01/03 05:19:24;;;;;;;;;;;;;;;;;;5111766;28;19984;-69
2024/01/03 05:21:50;;;;;;;;;;;;;;;;;;5109543;28;19920;-68
2024/01/03 05:24:16;;;;;;;;;;;;;;;;;;5102176;28;19928;-68
2024/01/03 05:26:42;;;;;;;;;;;;;;;;;;5111091;28;19927;-67
2024/01/03 05:29:08;;;;;;;;;;;;;;;;;;5110528;28;20346;-67
2024/01/03 05:31:34;;;;;;;;;;;;;;;;;;5103036;28;19920;-67
2024/01/03 05:34:00;;;;;;;;;;;;;;;;;;5113026;28;19932;-67
2024/01/03 05:36:26;;;;;;;;;;;;;;;;;;5108464;28;19965;-68
2024/01/03 05:38:51;;;;;;;;;;;;;;;;;;5109782;28;19966;-67
2024/01/03 05:41:17;;;;;;;;;;;;;;;;;;5106985;28;20532;-67
2024/01/03 05:43:43;;;;;;;;;;;;;;;;;;5106075;28;19924;-67
2024/01/03 05:46:09;;;;;;;;;;;;;;;;;;5109368;28;19926;-67
2024/01/03 05:48:35;;;;;;;;;;;;;;;;;;5113088;28;19970;-68
2024/01/03 05:51:02;;;;;;;;;;;;;;;;;;5109272;28;19955;-68
2024/01/03 05:53:28;;;;;;;;;;;;;;;;;;5106365;28;19927;-67
2024/01/03 05:55:54;;;;;;;;;;;;;;;;;;5090296;28;19973;-66
2024/01/03 05:58:20;;;;;;;;;;;;;;;;;;5108467;28;19955;-67
2024/01/03 06:00:46;;;;;;;;;;;;;;;;;;5105165;28;20436;-67
2024/01/03 06:03:12;;;;;;;;;;;;;;;;;;5106391;28;19929;-67
2024/01/03 06:05:38;;;;;;;;;;;;;;;;;;5113318;28;20010;-67
2024/01/03 06:08:04;;;;;;;;;;;;;;;;;;5112457;28;20014;-67
2024/01/03 06:10:30;;;;;;;;;;;;;;;;;;5107385;28;19920;-67
2024/01/03 06:12:56;;;;;;;;;;;;;;;;;;5111280;28;19928;-66
2024/01/03 06:15:22;;;;;;;;;;;;;;;;;;5107667;28;19973;-67
2024/01/03 06:17:48;;;;;;;;;;;;;;;;;;5105457;28;19927;-67
2024/01/03 06:20:14;;;;;;;;;;;;;;;;;;5112079;28;19924;-67
2024/01/03 06:22:40;;;;;;;;;;;;;;;;;;5113217;28;19926;-67
2024/01/03 06:25:06;;;;;;;;;;;;;;;;;;5112803;28;20364;-67
2024/01/03 06:27:32;;;;;;;;;;;;;;;;;;5109920;28;19919;-67
2024/01/03 06:29:58;;;;;;;;;;;;;;;;;;5107198;28;19935;-67
2024/01/03 06:32:24;;;;;;;;;;;;;;;;;;5102064;28;20633;-68
2024/01/03 06:34:50;;;;;;;;;;;;;;;;;;5110916;28;19931;-66
2024/01/03 06:37:17;;;;;;;;;;;;;;;;;;5113624;28;19934;-67
2024/01/03 06:39:43;;;;;;;;;;;;;;;;;;5114324;27;20011;-67
2024/01/03 06:42:09;;;;;;;;;;;;;;;;;;5113191;28;19919;-67
2024/01/03 06:44:35;;;;;;;;;;;;;;;;;;5107280;28;19935;-67
2024/01/03 06:47:00;;;;;;;;;;;;;;;;;;5103891;28;19923;-68
2024/01/03 06:49:26;;;;;;;;;;;;;;;;;;5110748;28;20285;-68
2024/01/03 06:51:52;;;;;;;;;;;;;;;;;;5110700;28;19927;-67
2024/01/03 06:54:18;;;;;;;;;;;;;;;;;;5109165;28;19987;-67
2024/01/03 06:56:44;;;;;;;;;;;;;;;;;;5106316;28;20015;-67
2024/01/03 06:59:12;;;;;;;;;;;;;;;;;;5108466;27;20147;-67
2024/01/03 07:01:38;;;;;;;;;;;;;;;;;;5108138;28;19920;-67
2024/01/03 07:04:04;;;;;;;;;;;;;;;;;;5104448;28;19920;-67
2024/01/03 07:06:30;;;;;;;;;;;;;;;;;;5088445;28;19930;-68
2024/01/03 07:08:56;;;;;;;;;;;;;;;;;;5101568;28;19920;-67
2024/01/03 07:11:22;;;;;;;;;;;;;;;;;;5099907;28;20318;-67
2024/01/03 07:13:48;;;;;;;;;;;;;;;;;;5102673;28;19919;-66
2024/01/03 07:16:15;;;;;;;;;;;;;;;;;;5099319;28;20340;-67
2024/01/03 07:18:42;;;;;;;;;;;;;;;;;;5103470;28;19923;-67
2024/01/03 07:21:08;;;;;;;;;;;;;;;;;;5108569;28;19920;-67
2024/01/03 07:23:34;;;;;;;;;;;;;;;;;;5112516;28;20319;-67
2024/01/03 07:25:59;;;;;;;;;;;;;;;;;;5106142;28;19969;-67
2024/01/03 07:28:25;;;;;;;;;;;;;;;;;;5106344;28;20006;-67
2024/01/03 07:30:51;;;;;;;;;;;;;;;;;;5106451;28;19966;-66
2024/01/03 07:33:17;;;;;;;;;;;;;;;;;;5101656;28;20428;-66
2024/01/03 07:35:43;;;;;;;;;;;;;;;;;;5090340;28;19926;-66
2024/01/03 07:38:09;;;;;;;;;;;;;;;;;;5107230;28;19924;-66
2024/01/03 07:40:35;;;;;;;;;;;;;;;;;;5106414;28;19946;-66
2024/01/03 07:43:01;;;;;;;;;;;;;;;;;;5098688;28;19928;-67
2024/01/03 07:45:28;;;;;;;;;;;;;;;;;;5105097;28;19920;-67
2024/01/03 07:47:54;;;;;;;;;;;;;;;;;;5105893;28;19919;-66
2024/01/03 07:50:20;;;;;;;;;;;;;;;;;;5106138;28;19980;-66
2024/01/03 07:52:46;;;;;;;;;;;;;;;;;;5105026;28;19928;-67
2024/01/03 07:55:12;;;;;;;;;;;;;;;;;;5104112;28;20000;-68
2024/01/03 07:57:38;;;;;;;;;;;;;;;;;;5105084;28;19926;-67
2024/01/03 08:00:04;;;;;;;;;;;;;;;;;;5103317;28;20379;-67
2024/01/03 08:02:30;;;;;;;;;;;;;;;;;;5103165;28;19928;-67
2024/01/03 08:04:55;;;;;;;;;;;;;;;;;;5102081;28;19939;-67
2024/01/03 08:07:21;;;;;;;;;;;;;;;;;;5106353;28;19946;-66
2024/01/03 08:09:49;;;;;;;;;;;;;;;;;;5110352;28;20417;-67
2024/01/03 08:12:15;;;;;;;;;;;;;;;;;;5110068;28;20315;-66
2024/01/03 08:14:41;;;;;;;;;;;;;;;;;;5109232;28;20022;-66
2024/01/03 08:17:07;;;;;;;;;;;;;;;;;;5105924;28;19924;-67
2024/01/03 08:19:32;;;;;;;;;;;;;;;;;;5109334;28;19919;-67
2024/01/03 08:21:58;;;;;;;;;;;;;;;;;;5098542;28;19920;-68
2024/01/03 08:24:25;;;;;;;;;;;;;;;;;;5105695;28;19919;-68
2024/01/03 08:26:51;;;;;;;;;;;;;;;;;;5105040;28;19927;-67
2024/01/03 08:29:17;;;;;;;;;;;;;;;;;;5093847;28;19919;-68
2024/01/03 08:31:43;;;;;;;;;;;;;;;;;;5107759;28;19978;-68
2024/01/03 08:34:09;;;;;;;;;;;;;;;;;;5099588;28;19949;-68
2024/01/03 08:36:35;;;;;;;;;;;;;;;;;;5107266;28;19927;-67
2024/01/03 08:39:01;;;;;;;;;;;;;;;;;;5101114;28;20406;-68
2024/01/03 08:41:27;;;;;;;;;;;;;;;;;;5109454;28;19934;-67
2024/01/03 08:43:53;;;;;;;;;;;;;;;;;;5100139;28;19930;-67
2024/01/03 08:46:19;;;;;;;;;;;;;;;;;;5103225;28;20534;-67
2024/01/03 08:48:45;;;;;;;;;;;;;;;;;;5105759;28;19920;-66
2024/01/03 08:51:11;;;;;;;;;;;;;;;;;;5109164;28;19935;-67
2024/01/03 08:53:37;;;;;;;;;;;;;;;;;;5104615;28;19920;-67
2024/01/03 08:56:05;;;;;;;;;;;;;;;;;;5101237;28;19920;-67
2024/01/03 08:58:30;;;;;;;;;;;;;;;;;;5108291;28;20007;-67
2024/01/03 09:00:56;;;;;;;;;;;;;;;;;;5094189;28;20011;-67
2024/01/03 09:03:22;;;;;;;;;;;;;;;;;;5103779;28;20111;-67
2024/01/03 09:05:48;;;;;;;;;;;;;;;;;;5101421;28;20014;-67
2024/01/03 09:08:14;;;;;;;;;;;;;;;;;;5101433;28;20014;-67
2024/01/03 09:10:40;;;;;;;;;;;;;;;;;;5102536;28;20006;-67
2024/01/03 09:13:08;;;;;;;;;;;;;;;;;;5109124;28;19928;-67
2024/01/03 09:15:34;;;;;;;;;;;;;;;;;;5111881;28;19955;-68
2024/01/03 09:18:00;;;;;;;;;;;;;;;;;;5110970;28;19966;-67
2024/01/03 09:20:25;;;;;;;;;;;;;;;;;;5108539;28;20332;-68
2024/01/03 09:22:52;;;;;;;;;;;;;;;;;;5115892;27;19996;-67
2024/01/03 09:25:18;;;;;;;;;;;;;;;;;;5107583;28;20011;-67
2024/01/03 09:27:44;;;;;;;;;;;;;;;;;;5101643;28;19935;-66
2024/01/03 09:30:10;;;;;;;;;;;;;;;;;;5110324;28;19973;-67
2024/01/03 09:32:36;;;;;;;;;;;;;;;;;;5114653;28;19923;-67
2024/01/03 09:35:03;;;;;;;;;;;;;;;;;;5114814;28;20281;-67
2024/01/03 09:37:29;;;;;;;;;;;;;;;;;;5113798;28;19920;-66
2024/01/03 09:39:55;;;;;;;;;;;;;;;;;;5114748;28;20316;-67
2024/01/03 09:42:21;;;;;;;;;;;;;;;;;;5108623;28;20045;-67
2024/01/03 09:44:47;;;;;;;;;;;;;;;;;;5100075;28;20418;-67
2024/01/03 09:47:12;;;;;;;;;;;;;;;;;;5112045;28;20010;-67
2024/01/03 09:49:38;;;;;;;;;;;;;;;;;;5108274;28;20061;-67
2024/01/03 09:52:04;;;;;;;;;;;;;;;;;;5106345;28;20014;-66
2024/01/03 09:54:31;;;;;;;;;;;;;;;;;;5101372;28;19927;-67
2024/01/03 09:56:57;;;;;;;;;;;;;;;;;;5113923;22;19931;-67
2024/01/03 09:59:23;;;;;;;;;;;;;;;;;;5085252;28;19924;-66
2024/01/03 10:01:49;;;;;;;;;;;;;;;;;;5087414;28;19920;-66
2024/01/03 10:04:15;;;;;;;;;;;;;;;;;;5089714;28;19920;-66
2024/01/03 10:06:40;;;;;;;;;;;;;;;;;;5090075;28;19962;-67
2024/01/03 10:09:11;;;;;;;;;;;;;;;;;;5085959;28;20304;-66
2024/01/03 10:11:37;;;;;;;;;;;;;;;;;;5080459;28;19924;-66
2024/01/03 10:14:02;;;;;;;;;;;;;;;;;;5089397;28;19924;-66
2024/01/03 10:16:28;;;;;;;;;;;;;;;;;;5093546;28;19927;-67
2024/01/03 10:18:54;;;;;;;;;;;;;;;;;;5091652;28;20387;-67
2024/01/03 10:21:20;;;;;;;;;;;;;;;;;;5088923;28;19924;-67
2024/01/03 10:23:46;;;;;;;;;;;;;;;;;;5088180;28;20015;-67
2024/01/03 10:26:12;;;;;;;;;;;;;;;;;;5093211;28;20473;-66
2024/01/03 10:28:38;;;;;;;;;;;;;;;;;;5087769;28;19925;-67
2024/01/03 10:31:07;;;;;;;;;;;;;;;;;;5089520;28;19920;-66
2024/01/03 10:33:33;;;;;;;;;;;;;;;;;;5091296;28;19932;-65
2024/01/03 10:35:59;;;;;;;;;;;;;;;;;;5092234;28;19932;-66
2024/01/03 10:38:26;;;;;;;;;;;;;;;;;;5091768;28;19920;-66
2024/01/03 10:40:52;;;;;;;;;;;;;;;;;;5092830;28;20050;-67
2024/01/03 10:43:18;;;;;;;;;;;;;;;;;;5092093;28;19923;-66
2024/01/03 10:45:44;;;;;;;;;;;;;;;;;;5088214;28;19920;-66
2024/01/03 10:48:10;;;;;;;;;;;;;;;;;;5089730;28;20461;-68
2024/01/03 10:50:36;;;;;;;;;;;;;;;;;;5092210;28;19924;-67
2024/01/03 10:53:02;;;;;;;;;;;;;;;;;;5091668;28;20008;-67
2024/01/03 10:55:28;;;;;;;;;;;;;;;;;;5090968;28;19920;-67
2024/01/03 10:57:54;;;;;;;;;;;;;;;;;;5086522;28;19924;-67
2024/01/03 11:00:20;;;;;;;;;;;;;;;;;;5087503;28;20020;-67
2024/01/03 11:02:45;;;;;;;;;;;;;;;;;;5090470;28;19956;-67
2024/01/03 11:05:11;;;;;;;;;;;;;;;;;;5086714;28;19921;-67
2024/01/03 11:07:37;;;;;;;;;;;;;;;;;;5086669;28;19924;-67
2024/01/03 11:10:05;;;;;;;;;;;;;;;;;;5089561;28;20693;-67
2024/01/03 11:12:31;;;;;;;;;;;;;;;;;;5091603;28;19928;-67
2024/01/03 11:14:57;;;;;;;;;;;;;;;;;;5087643;28;19938;-66
2024/01/03 11:17:24;;;;;;;;;;;;;;;;;;5079096;28;19928;-67
2024/01/03 11:19:49;;;;;;;;;;;;;;;;;;5090143;28;19984;-67
2024/01/03 11:22:15;;;;;;;;;;;;;;;;;;5087192;28;20362;-67
2024/01/03 11:24:41;;;;;;;;;;;;;;;;;;5089651;28;19927;-66
2024/01/03 11:27:07;;;;;;;;;;;;;;;;;;5089217;28;19931;-66
2024/01/03 11:29:33;;;;;;;;;;;;;;;;;;5090823;28;19924;-66
2024/01/03 11:32:02;;;;;;;;;;;;;;;;;;5081353;28;19931;-67
2024/01/03 11:34:27;;;;;;;;;;;;;;;;;;5090811;28;19920;-67
2024/01/03 11:36:53;;;;;;;;;;;;;;;;;;5082540;28;19928;-68
2024/01/03 11:39:19;;;;;;;;;;;;;;;;;;5087268;28;19924;-68
2024/01/03 11:41:47;;;;;;;;;;;;;;;;;;5088375;28;20282;-67
2024/01/03 11:44:13;;;;;;;;;;;;;;;;;;5086959;28;19931;-68
2024/01/03 11:46:39;;;;;;;;;;;;;;;;;;5083676;28;19928;-68
2024/01/03 11:49:04;;;;;;;;;;;;;;;;;;5088259;28;19920;-68
2024/01/03 11:51:30;;;;;;;;;;;;;;;;;;5089219;28;19920;-66
2024/01/03 11:53:56;;;;;;;;;;;;;;;;;;5090297;28;19977;-66
2024/01/03 11:56:22;;;;;;;;;;;;;;;;;;5090094;28;20305;-66
2024/01/03 11:58:48;;;;;;;;;;;;;;;;;;5090337;28;19920;-66
2024/01/03 12:01:16;;;;;;;;;;;;;;;;;;5087718;28;20597;-66
2024/01/03 12:03:42;;;;;;;;;;;;;;;;;;5089792;28;19931;-67
2024/01/03 12:06:08;;;;;;;;;;;;;;;;;;5090933;28;19927;-67
2024/01/03 12:08:34;;;;;;;;;;;;;;;;;;5089819;28;19950;-68
2024/01/03 12:11:00;;;;;;;;;;;;;;;;;;5090744;28;19924;-67
2024/01/03 12:13:26;;;;;;;;;;;;;;;;;;5090731;28;19932;-67
2024/01/03 12:15:52;;;;;;;;;;;;;;;;;;5077417;28;19928;-67
2024/01/03 12:18:20;;;;;;;;;;;;;;;;;;5087380;28;20405;-65
2024/01/03 12:20:46;;;;;;;;;;;;;;;;;;5082097;28;20365;-65
2024/01/03 12:23:15;;;;;;;;;;;;;;;;;;5089798;28;20020;-66
2024/01/03 12:25:43;;;;;;;;;;;;;;;;;;5090531;28;19924;-67
2024/01/03 12:28:08;;;;;;;;;;;;;;;;;;5091019;28;19927;-67
2024/01/03 12:30:34;;;;;;;;;;;;;;;;;;5089694;28;19928;-67
2024/01/03 12:33:00;;;;;;;;;;;;;;;;;;5064841;28;19950;-68
2024/01/03 12:35:26;;;;;;;;;;;;;;;;;;5084953;28;19920;-67
2024/01/03 12:37:52;;;;;;;;;;;;;;;;;;5091023;28;19924;-67
2024/01/03 12:40:18;;;;;;;;;;;;;;;;;;5091131;28;19931;-67
2024/01/03 12:42:44;;;;;;;;;;;;;;;;;;5089286;28;19921;-66
2024/01/03 12:45:10;;;;;;;;;;;;;;;;;;5090857;28;20315;-66
2024/01/03 12:47:36;;;;;;;;;;;;;;;;;;5082977;28;20068;-66
2024/01/03 12:50:02;;;;;;;;;;;;;;;;;;5086752;28;19928;-66
2024/01/03 12:52:29;;;;;;;;;;;;;;;;;;5081982;28;19932;-66
2024/01/03 12:54:55;;;;;;;;;;;;;;;;;;5085785;28;19928;-67
2024/01/03 12:57:21;;;;;;;;;;;;;;;;;;5091090;28;19928;-66
2024/01/03 12:59:47;;;;;;;;;;;;;;;;;;5094411;28;19920;-67
2024/01/03 13:02:13;;;;;;;;;;;;;;;;;;5083293;28;19925;-67
2024/01/03 13:04:39;;;;;;;;;;;;;;;;;;5092848;28;19931;-67
2024/01/03 13:07:05;;;;;;;;;;;;;;;;;;5090845;28;19921;-66
2024/01/03 13:09:31;;;;;;;;;;;;;;;;;;5084332;28;19927;-66
2024/01/03 13:11:57;;;;;;;;;;;;;;;;;;5093448;28;19928;-67
2024/01/03 13:14:23;;;;;;;;;;;;;;;;;;5085060;28;19928;-67
2024/01/03 13:16:49;;;;;;;;;;;;;;;;;;5083809;28;19996;-67
2024/01/03 13:19:15;;;;;;;;;;;;;;;;;;5090373;28;19920;-67
2024/01/03 13:21:41;;;;;;;;;;;;;;;;;;5073380;28;19931;-67
2024/01/03 13:24:07;;;;;;;;;;;;;;;;;;5077016;28;20281;-67
2024/01/03 13:26:33;;;;;;;;;;;;;;;;;;5093940;28;20373;-67
2024/01/03 13:28:59;;;;;;;;;;;;;;;;;;5085032;28;19920;-67
2024/01/03 13:31:25;;;;;;;;;;;;;;;;;;5089431;28;19929;-68
2024/01/03 13:33:51;;;;;;;;;;;;;;;;;;5086945;28;19943;-67
2024/01/03 13:36:17;;;;;;;;;;;;;;;;;;5084816;28;19935;-68
2024/01/03 13:38:43;;;;;;;;;;;;;;;;;;5088074;28;19924;-67
2024/01/03 13:41:09;;;;;;;;;;;;;;;;;;5092529;28;19924;-65
2024/01/03 13:43:35;;;;;;;;;;;;;;;;;;5087967;28;20459;-66
2024/01/03 13:46:04;;;;;;;;;;;;;;;;;;5087041;28;19924;-66
2024/01/03 13:48:30;;;;;;;;;;;;;;;;;;5087713;28;19970;-67
2024/01/03 13:50:56;;;;;;;;;;;;;;;;;;5093872;28;19927;-67
2024/01/03 13:53:22;;;;;;;;;;;;;;;;;;5090652;28;19928;-66
2024/01/03 13:55:48;;;;;;;;;;;;;;;;;;5087091;28;19999;-66
2024/01/03 13:58:14;;;;;;;;;;;;;;;;;;5091104;28;19963;-66
2024/01/03 14:00:40;;;;;;;;;;;;;;;;;;5089838;28;19975;-66
2024/01/03 14:03:06;;;;;;;;;;;;;;;;;;5085715;28;19955;-67
2024/01/03 14:05:32;;;;;;;;;;;;;;;;;;5091622;28;20561;-67
2024/01/03 14:07:58;;;;;;;;;;;;;;;;;;5092472;28;19924;-66
2024/01/03 14:10:24;;;;;;;;;;;;;;;;;;5092880;28;20401;-67
2024/01/03 14:12:49;;;;;;;;;;;;;;;;;;5087692;28;20020;-67
2024/01/03 14:15:15;;;;;;;;;;;;;;;;;;5091210;28;19959;-67
2024/01/03 14:17:41;;;;;;;;;;;;;;;;;;5088695;28;19931;-67
2024/01/03 14:20:12;;;;;;;;;;;;;;;;;;5089864;28;19973;-67
2024/01/03 14:22:38;;;;;;;;;;;;;;;;;;5086479;28;19924;-67
2024/01/03 14:25:04;;;;;;;;;;;;;;;;;;5091005;28;20016;-67
2024/01/03 14:27:31;;;;;;;;;;;;;;;;;;5087959;28;19920;-67
2024/01/03 14:29:57;;;;;;;;;;;;;;;;;;5084274;28;19998;-67
2024/01/03 14:32:23;;;;;;;;;;;;;;;;;;5082351;28;19936;-67
2024/01/03 14:34:48;;;;;;;;;;;;;;;;;;5086902;28;19920;-67
2024/01/03 14:37:17;;;;;;;;;;;;;;;;;;5092756;28;19924;-67
2024/01/03 14:39:43;;;;;;;;;;;;;;;;;;5086930;28;19995;-68
2024/01/03 14:42:18;;;;;;;;;;;;;;;;;;5092615;28;19955;-68
2024/01/03 14:44:43;;;;;;;;;;;;;;;;;;5088664;28;20017;-68
2024/01/03 14:47:09;;;;;;;;;;;;;;;;;;5085529;28;20064;-67
2024/01/03 14:49:37;;;;;;;;;;;;;;;;;;5082004;28;20359;-67
2024/01/03 14:52:03;;;;;;;;;;;;;;;;;;5087851;28;19935;-67
2024/01/03 14:54:29;;;;;;;;;;;;;;;;;;5083416;28;19925;-66
2024/01/03 14:56:55;;;;;;;;;;;;;;;;;;5084634;28;19928;-67
2024/01/03 14:59:21;;;;;;;;;;;;;;;;;;5088473;28;19924;-67
2024/01/03 15:01:48;;;;;;;;;;;;;;;;;;5086751;28;19924;-67
2024/01/03 15:04:15;;;;;;;;;;;;;;;;;;5085259;28;20294;-67
2024/01/03 15:06:41;;;;;;;;;;;;;;;;;;5086781;28;19924;-68
2024/01/03 15:09:07;;;;;;;;;;;;;;;;;;5084114;28;19920;-67
2024/01/03 15:11:33;;;;;;;;;;;;;;;;;;5090073;28;19931;-67
2024/01/03 15:13:59;;;;;;;;;;;;;;;;;;5083002;28;19925;-67
2024/01/03 15:16:25;;;;;;;;;;;;;;;;;;5089420;28;20630;-69
2024/01/03 15:18:52;;;;;;;;;;;;;;;;;;5083749;28;19938;-67
2024/01/03 15:21:18;;;;;;;;;;;;;;;;;;5085501;28;19955;-67
2024/01/03 15:23:44;;;;;;;;;;;;;;;;;;5085927;28;19959;-68
2024/01/03 15:26:10;;;;;;;;;;;;;;;;;;5088827;28;19924;-67
2024/01/03 15:28:37;;;;;;;;;;;;;;;;;;5075976;28;19935;-67
2024/01/03 15:31:03;;;;;;;;;;;;;;;;;;5078816;28;19929;-67
2024/01/03 15:33:30;;;;;;;;;;;;;;;;;;5080921;28;19928;-67
2024/01/03 15:35:56;;;;;;;;;;;;;;;;;;5080703;28;20065;-67
2024/01/03 15:38:23;;;;;;;;;;;;;;;;;;5082539;28;20051;-68
2024/01/03 15:40:49;;;;;;;;;;;;;;;;;;5077896;28;19920;-69
2024/01/03 15:43:16;;;;;;;;;;;;;;;;;;5087000;28;19925;-68
2024/01/03 15:45:42;;;;;;;;;;;;;;;;;;5089227;28;20388;-68
2024/01/03 15:48:08;;;;;;;;;;;;;;;;;;5089247;28;19924;-69
2024/01/03 15:50:34;;;;;;;;;;;;;;;;;;5085712;28;20418;-68
2024/01/03 15:53:00;;;;;;;;;;;;;;;;;;5089433;28;19932;-68
2024/01/03 15:55:26;;;;;;;;;;;;;;;;;;5087352;28;19924;-66
2024/01/03 15:57:52;;;;;;;;;;;;;;;;;;5089271;28;19989;-67
2024/01/03 16:00:20;;;;;;;;;;;;;;;;;;5087670;28;19930;-67
2024/01/03 16:02:46;;;;;;;;;;;;;;;;;;5087582;28;20366;-67
2024/01/03 16:05:12;;;;;;;;;;;;;;;;;;5085400;28;19971;-67
2024/01/03 16:07:38;;;;;;;;;;;;;;;;;;5089097;28;19958;-67
2024/01/03 16:10:05;;;;;;;;;;;;;;;;;;5089049;28;19963;-66
2024/01/03 16:12:30;;;;;;;;;;;;;;;;;;5089014;28;19978;-67
2024/01/03 16:14:57;;;;;;;;;;;;;;;;;;5087475;28;19948;-67
2024/01/03 16:17:22;;;;;;;;;;;;;;;;;;5089543;28;19935;-67
2024/01/03 16:19:48;;;;;;;;;;;;;;;;;;5085915;28;19928;-68
2024/01/03 16:22:17;;;;;;;;;;;;;;;;;;5091236;28;19924;-67
2024/01/03 16:24:43;;;;;;;;;;;;;;;;;;5087660;28;20005;-68
2024/01/03 16:27:09;;;;;;;;;;;;;;;;;;5091718;28;20040;-68
2024/01/03 16:29:35;;;;;;;;;;;;;;;;;;5091477;28;19932;-68
2024/01/03 16:32:02;;;;;;;;;;;;;;;;;;5093301;28;19956;-68
2024/01/03 16:34:28;;;;;;;;;;;;;;;;;;5093005;28;19924;-68
2024/01/03 16:36:54;;;;;;;;;;;;;;;;;;5085456;28;19924;-67